Time;durP1;ratioP1;P1;durP2;ratioP2;P2;SDS_P1;SDS_P2;PMS_P1;PMS_P2;Temp;Humidity;BMP_temperature;BMP_pressure;BME280_temperature;BME280_humidity;BME280_pressure;Samples;Min_cycle;Max_cycle;Signal;HPM_P1;HPM_P2
2021/08/20 00:01:22;;;;;;;;;1.50;1.50;;;;;24.91;43.39;101321.69;5099409;27;50974;-46
2021/08/20 00:03:48;;;;;;;;;4.00;3.00;;;;;24.91;43.62;101327.22;5099266;27;51039;-46
2021/08/20 00:06:13;;;;;;;;;1.00;0.75;;;;;24.90;43.36;101321.91;5104684;27;51128;-48
2021/08/20 00:08:38;;;;;;;;;2.00;2.00;;;;;24.90;43.45;101319.13;5104931;27;51033;-50
2021/08/20 00:11:06;;;;;;;;;1.00;1.00;;;;;24.90;43.46;101319.97;5119614;27;51791;-46
2021/08/20 00:13:32;;;;;;;;;3.00;1.75;;;;;24.91;43.33;101323.63;5120607;27;51243;-47
2021/08/20 00:15:57;;;;;;;;;2.25;1.75;;;;;24.90;43.37;101325.50;5116834;27;50986;-48
2021/08/20 00:18:24;;;;;;;;;2.00;2.00;;;;;24.89;43.37;101318.28;5102267;27;50918;-49
2021/08/20 00:20:49;;;;;;;;;3.75;1.00;;;;;24.90;43.61;101317.19;5099460;27;52043;-46
2021/08/20 00:23:15;;;;;;;;;0.75;0.75;;;;;24.89;43.45;101309.97;5099276;27;51050;-46
2021/08/20 00:25:41;;;;;;;;;2.25;2.25;;;;;24.90;43.55;101311.66;5099632;27;51112;-45
2021/08/20 00:28:06;;;;;;;;;3.25;2.75;;;;;24.90;43.51;101321.91;5100368;27;51115;-47
2021/08/20 00:30:31;;;;;;;;;7.00;2.50;;;;;24.90;43.61;101316.34;5098883;27;51885;-48
2021/08/20 00:32:57;;;;;;;;;1.75;1.75;;;;;24.89;43.86;101309.13;5119856;27;51054;-47
2021/08/20 00:35:22;;;;;;;;;0.50;0.50;;;;;24.89;43.45;101311.91;5119919;27;51127;-45
2021/08/20 00:37:47;;;;;;;;;1.00;1.00;;;;;24.88;43.56;101311.06;5119538;27;51093;-45
2021/08/20 00:40:13;;;;;;;;;1.50;1.50;;;;;24.90;43.31;101310.81;5103882;27;52285;-47
2021/08/20 00:42:38;;;;;;;;;2.75;2.75;;;;;24.89;43.46;101309.97;5099506;27;51114;-45
2021/08/20 00:45:05;;;;;;;;;1.25;1.25;;;;;24.90;43.53;101319.13;5099494;27;50988;-46
2021/08/20 00:47:31;;;;;;;;;1.00;1.00;;;;;24.88;43.47;101311.06;5118077;27;51065;-45
2021/08/20 00:49:56;;;;;;;;;2.50;1.00;;;;;24.89;43.33;101311.91;5106621;27;51045;-47
2021/08/20 00:52:23;;;;;;;;;1.00;1.00;;;;;24.88;43.31;101310.22;5080900;27;51008;-47
2021/08/20 00:54:49;;;;;;;;;2.00;1.00;;;;;24.88;43.49;101313.00;5104832;27;51016;-47
2021/08/20 00:57:16;;;;;;;;;1.25;1.25;;;;;24.87;43.46;101306.59;5099589;27;50983;-47
2021/08/20 00:59:44;;;;;;;;;1.00;1.00;;;;;24.88;43.40;101308.28;5108460;27;51738;-45
2021/08/20 01:02:09;;;;;;;;;2.50;1.25;;;;;24.87;43.69;101298.28;5118536;27;50957;-49
2021/08/20 01:04:36;;;;;;;;;2.25;2.25;;;;;24.88;43.37;101304.69;5118914;27;50885;-45
2021/08/20 01:07:02;;;;;;;;;2.00;2.00;;;;;24.89;43.55;101300.81;5118722;27;51257;-48
2021/08/20 01:09:27;;;;;;;;;1.00;1.00;;;;;24.88;43.48;101294.44;5101374;27;52310;-49
2021/08/20 01:11:53;;;;;;;;;1.00;0.75;;;;;24.88;43.52;101288.06;5099057;27;50841;-47
2021/08/20 01:14:34;;;;;;;;;1.00;0.25;;;;;24.88;43.33;101293.59;5100136;27;50818;-45
2021/08/20 01:17:01;;;;;;;;;3.00;1.25;;;;;24.88;43.51;101293.59;5118203;27;51148;-45
2021/08/20 01:19:27;;;;;;;;;2.00;2.00;;;;;24.87;43.49;101295.53;5118737;27;51231;-46
2021/08/20 01:21:53;;;;;;;;;2.00;1.50;;;;;24.88;43.47;101296.38;5117514;27;50963;-46
2021/08/20 01:24:20;;;;;;;;;1.00;1.00;;;;;24.87;43.52;101287.22;5118142;27;50951;-45
2021/08/20 01:26:47;;;;;;;;;1.00;1.00;;;;;24.88;43.47;101288.06;5112712;27;51378;-46
2021/08/20 01:29:16;;;;;;;;;1.25;1.25;;;;;24.87;43.41;101298.28;5116598;27;51792;-46
2021/08/20 01:31:43;;;;;;;;;2.00;2.00;;;;;24.87;43.56;101289.97;5119312;27;51031;-46
2021/08/20 01:34:08;;;;;;;;;2.00;2.00;;;;;24.86;43.04;101299.38;5119149;27;51256;-46
2021/08/20 01:36:33;;;;;;;;;1.50;1.50;;;;;24.87;43.13;101298.28;5110931;27;51064;-49
2021/08/20 01:38:59;;;;;;;;;2.00;2.00;;;;;24.85;42.83;101292.16;5118612;27;51832;-47
2021/08/20 01:41:26;;;;;;;;;3.00;3.00;;;;;24.85;42.77;101292.16;5119017;27;50952;-45
2021/08/20 01:43:52;;;;;;;;;2.00;2.00;;;;;24.84;42.67;101292.41;5119314;27;50919;-46
2021/08/20 01:46:18;;;;;;;;;2.00;2.00;;;;;24.82;42.54;101280.72;5110563;27;50870;-47
2021/08/20 01:49:03;;;;;;;;;5.00;2.00;;;;;24.80;42.53;101282.88;5118265;27;52834;-47
2021/08/20 01:51:30;;;;;;;;;4.25;1.00;;;;;24.77;42.35;101287.81;5118630;27;51347;-48
2021/08/20 01:53:57;;;;;;;;;2.75;2.00;;;;;24.75;42.32;101281.66;5118643;27;50964;-49
2021/08/20 01:56:27;;;;;;;;;4.00;3.00;;;;;24.73;42.47;101277.47;5110340;27;51287;-47
2021/08/20 01:58:56;;;;;;;;;5.00;2.75;;;;;24.70;42.28;101264.94;5118557;27;50999;-46
2021/08/20 02:01:22;;;;;;;;;3.50;3.50;;;;;24.68;42.54;101267.09;5118867;27;51530;-45
2021/08/20 02:03:48;;;;;;;;;3.25;3.00;;;;;24.66;42.33;101263.72;5096842;27;51105;-45
2021/08/20 02:06:13;;;;;;;;;6.50;3.50;;;;;24.64;42.34;101263.13;5089465;27;51219;-46
2021/08/20 02:08:39;;;;;;;;;2.00;2.00;;;;;24.62;42.63;101262.53;5088617;27;51694;-47
2021/08/20 02:11:04;;;;;;;;;3.50;3.50;;;;;24.63;42.55;101255.06;5077504;27;50994;-47
2021/08/20 02:13:30;;;;;;;;;5.00;3.00;;;;;24.61;42.15;101266.38;5077620;27;51592;-47
2021/08/20 02:15:55;;;;;;;;;4.00;3.00;;;;;24.60;42.14;101263.84;5083068;27;50944;-46
2021/08/20 02:18:21;;;;;;;;;3.50;3.00;;;;;24.58;42.37;101264.06;5094127;27;53977;-48
2021/08/20 02:20:47;;;;;;;;;4.50;4.50;;;;;24.57;42.29;101264.31;5097790;27;50946;-46
2021/08/20 02:23:13;;;;;;;;;4.25;3.00;;;;;24.56;42.44;101266.25;5097615;27;51332;-45
2021/08/20 02:25:38;;;;;;;;;2.25;1.75;;;;;24.57;42.44;101269.84;5089371;27;50872;-45
2021/08/20 02:28:04;;;;;;;;;2.50;2.50;;;;;24.54;42.18;101271.19;5078246;27;50996;-48
2021/08/20 02:30:30;;;;;;;;;5.00;3.75;;;;;24.53;42.05;101272.25;5077568;27;51157;-48
2021/08/20 02:32:56;;;;;;;;;2.00;2.00;;;;;24.53;42.36;101274.19;5077510;27;51213;-44
2021/08/20 02:35:25;;;;;;;;;4.25;2.75;;;;;24.52;42.44;101270.59;5088482;27;51349;-49
2021/08/20 02:37:52;;;;;;;;;3.00;3.00;;;;;24.50;42.27;101269.97;5077142;28;51181;-49
2021/08/20 02:40:17;;;;;;;;;3.25;2.00;;;;;24.50;42.23;101278.28;5076269;28;51214;-44
2021/08/20 02:42:43;;;;;;;;;4.00;3.00;;;;;24.50;42.39;101269.13;5077754;28;51096;-47
2021/08/20 02:45:08;;;;;;;;;2.50;1.50;;;;;24.48;42.24;101275.72;5086759;27;51162;-47
2021/08/20 02:47:34;;;;;;;;;3.50;2.50;;;;;24.47;42.30;101271.28;5078716;27;51835;-45
2021/08/20 02:50:00;;;;;;;;;2.00;2.00;;;;;24.46;42.41;101275.13;5077273;27;51117;-46
2021/08/20 02:52:25;;;;;;;;;2.00;2.00;;;;;24.45;42.73;101273.44;5077671;27;50944;-46
2021/08/20 02:54:51;;;;;;;;;2.00;2.00;;;;;24.44;42.32;101274.53;5097675;27;50973;-45
2021/08/20 02:57:16;;;;;;;;;4.50;1.25;;;;;24.42;42.33;101268.41;5081696;27;51746;-44
2021/08/20 02:59:41;;;;;;;;;3.50;3.00;;;;;24.41;42.46;101263.94;5077105;27;51030;-46
2021/08/20 03:02:07;;;;;;;;;4.75;3.00;;;;;24.41;42.46;101272.25;5085718;27;51122;-46
2021/08/20 03:04:32;;;;;;;;;2.50;2.50;;;;;24.40;42.50;101269.72;5113959;27;51028;-45
2021/08/20 03:06:58;;;;;;;;;2.50;2.50;;;;;24.38;42.50;101272.72;5108816;27;52042;-47
2021/08/20 03:09:23;;;;;;;;;3.50;3.50;;;;;24.38;42.71;101272.72;5103291;27;51021;-45
2021/08/20 03:11:49;;;;;;;;;3.50;3.50;;;;;24.38;42.49;101269.09;5097128;27;51182;-46
2021/08/20 03:14:15;;;;;;;;;3.25;3.25;;;;;24.37;42.52;101270.19;5097733;27;50988;-48
2021/08/20 03:16:41;;;;;;;;;4.25;4.00;;;;;24.36;42.65;101271.25;5106634;27;52418;-47
2021/08/20 03:19:07;;;;;;;;;3.50;2.75;;;;;24.36;42.57;101271.25;5116928;27;50963;-45
2021/08/20 03:21:33;;;;;;;;;5.50;3.50;;;;;24.35;42.67;101266.81;5117541;27;51192;-47
2021/08/20 03:23:58;;;;;;;;;3.50;3.50;;;;;24.34;42.51;101263.19;5117824;27;51087;-47
2021/08/20 03:26:24;;;;;;;;;3.25;3.25;;;;;24.34;42.55;101262.34;5099574;27;51796;-47
2021/08/20 03:28:50;;;;;;;;;3.00;3.00;;;;;24.33;42.47;101263.44;5097157;27;51152;-49
2021/08/20 03:31:15;;;;;;;;;4.00;3.75;;;;;24.33;42.59;101253.22;5099674;27;51148;-50
2021/08/20 03:33:40;;;;;;;;;3.00;2.25;;;;;24.32;42.76;101256.22;5100817;27;51125;-45
2021/08/20 03:36:06;;;;;;;;;4.00;3.00;;;;;24.32;42.82;101254.28;5111720;27;51942;-44
2021/08/20 03:38:31;;;;;;;;;2.50;2.50;;;;;24.32;42.59;101262.59;5100072;27;50874;-49
2021/08/20 03:40:57;;;;;;;;;3.50;2.25;;;;;24.32;42.31;101264.53;5082566;27;51043;-49
2021/08/20 03:43:23;;;;;;;;;3.75;3.75;;;;;24.30;42.47;101267.50;5100851;27;50931;-49
2021/08/20 03:45:49;;;;;;;;;4.25;3.00;;;;;24.30;42.27;101264.75;5114008;27;51669;-45
2021/08/20 03:48:14;;;;;;;;;3.25;3.25;;;;;24.30;42.79;101270.28;5100316;27;51053;-45
2021/08/20 03:50:39;;;;;;;;;4.25;2.75;;;;;24.29;42.81;101270.53;5100311;27;51123;-48
2021/08/20 03:53:05;;;;;;;;;2.00;2.00;;;;;24.29;42.80;101264.97;5100656;27;50923;-46
2021/08/20 03:55:30;;;;;;;;;3.00;2.00;;;;;24.28;42.75;101271.56;5112985;27;50893;-47
2021/08/20 03:57:55;;;;;;;;;3.25;2.00;;;;;24.26;42.70;101270.97;5100985;27;50935;-46
2021/08/20 04:00:21;;;;;;;;;3.25;2.00;;;;;24.26;42.67;101277.34;5100089;27;51267;-46
2021/08/20 04:02:46;;;;;;;;;3.75;2.00;;;;;24.25;42.58;101274.81;5099798;27;51066;-48
2021/08/20 04:05:11;;;;;;;;;3.25;3.00;;;;;24.24;42.82;101273.97;5109919;27;50971;-45
2021/08/20 04:07:37;;;;;;;;;5.25;4.00;;;;;24.24;42.37;101281.44;5106092;27;51457;-48
2021/08/20 04:10:04;;;;;;;;;3.50;3.25;;;;;24.23;42.69;101280.59;5117399;27;51053;-45
2021/08/20 04:12:29;;;;;;;;;3.00;3.00;;;;;24.21;43.05;101281.94;5121093;27;51004;-46
2021/08/20 04:14:54;;;;;;;;;3.75;3.75;;;;;24.21;42.55;101284.69;5112309;27;51654;-47
2021/08/20 04:17:20;;;;;;;;;4.50;4.00;;;;;24.20;42.97;101292.16;5113398;27;51078;-47
2021/08/20 04:19:45;;;;;;;;;2.00;2.00;;;;;24.19;42.96;101288.56;5119228;27;51046;-47
2021/08/20 04:22:10;;;;;;;;;4.50;2.25;;;;;24.18;42.70;101292.41;5120646;27;50957;-45
2021/08/20 04:24:36;;;;;;;;;2.75;2.75;;;;;24.18;42.77;101297.09;5115727;27;51759;-45
2021/08/20 04:27:01;;;;;;;;;2.25;2.25;;;;;24.17;43.35;101290.69;5082097;27;51169;-47
2021/08/20 04:29:27;;;;;;;;;2.00;2.00;;;;;24.18;42.90;101308.16;5099778;27;50955;-61
2021/08/20 04:31:52;;;;;;;;;4.00;3.00;;;;;24.18;42.75;101299.88;5099754;27;51176;-49
2021/08/20 04:34:17;;;;;;;;;3.75;3.75;;;;;24.17;42.98;101296.22;5101014;27;51727;-48
2021/08/20 04:36:43;;;;;;;;;2.00;2.00;;;;;24.17;42.98;101298.16;5111798;27;51076;-45
2021/08/20 04:39:08;;;;;;;;;3.75;2.00;;;;;24.16;43.16;101296.47;5099566;27;51239;-46
2021/08/20 04:41:33;;;;;;;;;2.50;2.50;;;;;24.15;42.94;101298.38;5081131;27;51225;-45
2021/08/20 04:43:59;;;;;;;;;3.00;2.00;;;;;24.15;43.18;101294.78;5099392;27;51188;-48
2021/08/20 04:46:24;;;;;;;;;5.00;3.00;;;;;24.14;42.81;101299.47;5113149;27;51121;-45
2021/08/20 04:48:50;;;;;;;;;2.75;2.75;;;;;24.14;43.04;101299.47;5099565;27;51117;-45
2021/08/20 04:51:15;;;;;;;;;3.25;3.25;;;;;24.14;43.12;101299.47;5099797;27;50879;-49
2021/08/20 04:53:41;;;;;;;;;3.00;3.00;;;;;24.14;43.09;101299.47;5115678;27;51594;-47
2021/08/20 04:56:06;;;;;;;;;3.25;2.75;;;;;24.13;43.20;101303.31;5103273;27;50967;-47
2021/08/20 04:58:33;;;;;;;;;2.00;2.00;;;;;24.12;42.94;101309.94;5099614;27;51750;-45
2021/08/20 05:00:58;;;;;;;;;4.50;3.25;;;;;24.12;43.06;101309.94;5100383;27;51283;-46
2021/08/20 05:03:24;;;;;;;;;3.00;3.00;;;;;24.11;43.08;101308.25;5111671;27;51023;-49
2021/08/20 05:05:49;;;;;;;;;5.25;3.50;;;;;24.10;42.91;101303.81;5105506;27;51024;-44
2021/08/20 05:08:15;;;;;;;;;3.75;3.00;;;;;24.11;43.40;101305.47;5099178;27;51087;-45
2021/08/20 05:10:41;;;;;;;;;4.50;3.75;;;;;24.11;42.97;101310.19;5119798;27;51349;-46
2021/08/20 05:13:06;;;;;;;;;3.25;3.00;;;;;24.11;42.84;101304.66;5118531;27;51180;-46
2021/08/20 05:15:32;;;;;;;;;3.00;3.00;;;;;24.11;42.92;101307.41;5108057;27;51026;-45
2021/08/20 05:17:57;;;;;;;;;3.25;3.25;;;;;24.10;42.87;101303.81;5099139;27;51030;-45
2021/08/20 05:20:24;;;;;;;;;4.00;2.00;;;;;24.09;43.13;101307.66;5098777;27;50842;-46
2021/08/20 05:22:53;;;;;;;;;3.75;3.75;;;;;24.10;43.20;101308.50;5105648;27;51015;-47
2021/08/20 05:25:19;;;;;;;;;3.25;3.25;;;;;24.08;43.36;101311.50;5110081;27;51090;-45
2021/08/20 05:27:45;;;;;;;;;6.00;4.50;;;;;24.08;43.47;101308.72;5097082;27;51151;-46
2021/08/20 05:30:11;;;;;;;;;4.00;3.25;;;;;24.08;43.47;101314.25;5119456;27;51049;-45
2021/08/20 05:32:37;;;;;;;;;3.25;3.25;;;;;24.07;42.90;101315.34;5117902;27;51961;-48
2021/08/20 05:35:04;;;;;;;;;4.00;4.00;;;;;24.07;43.61;101320.88;5112691;27;50950;-47
2021/08/20 05:37:30;;;;;;;;;3.75;3.25;;;;;24.06;43.52;101315.56;5108927;27;51043;-46
2021/08/20 05:39:55;;;;;;;;;2.25;2.25;;;;;24.05;43.08;101317.47;5100126;27;50926;-44
2021/08/20 05:42:21;;;;;;;;;5.75;3.00;;;;;24.04;43.62;101315.78;5102036;27;50962;-46
2021/08/20 05:44:46;;;;;;;;;2.50;2.50;;;;;24.05;43.40;101314.72;5101436;27;51061;-47
2021/08/20 05:47:11;;;;;;;;;4.75;4.00;;;;;24.04;43.29;101317.72;5103002;27;51153;-45
2021/08/20 05:49:37;;;;;;;;;3.25;3.25;;;;;24.04;43.52;101320.50;5098348;27;51225;-45
2021/08/20 05:52:02;;;;;;;;;4.25;2.75;;;;;24.04;43.39;101326.03;5101909;27;51221;-45
2021/08/20 05:54:27;;;;;;;;;3.00;3.00;;;;;24.04;43.67;101331.56;5098798;27;51118;-50
2021/08/20 05:56:53;;;;;;;;;3.00;3.00;;;;;24.02;43.61;101322.66;5111240;27;51120;-49
2021/08/20 05:59:18;;;;;;;;;2.00;2.00;;;;;24.01;43.24;101319.03;5112428;27;50971;-45
2021/08/20 06:01:44;;;;;;;;;5.75;4.00;;;;;23.99;43.45;101323.97;5109979;27;50938;-45
2021/08/20 06:04:09;;;;;;;;;5.25;3.00;;;;;23.97;43.43;101328.91;5113929;27;51044;-45
2021/08/20 06:06:38;;;;;;;;;3.00;2.75;;;;;23.97;43.75;101328.03;5103918;27;51713;-45
2021/08/20 06:09:05;;;;;;;;;5.00;3.75;;;;;23.93;43.83;101330.44;5101710;27;51318;-46
2021/08/20 06:11:31;;;;;;;;;4.25;4.25;;;;;23.90;43.91;101322.59;5112290;27;51182;-46
2021/08/20 06:13:56;;;;;;;;;17.75;12.50;;;;;23.88;43.79;101327.53;5105415;27;51385;-45
2021/08/20 06:16:22;;;;;;;;;7.75;6.75;;;;;23.86;43.87;101335.19;5106491;27;51090;-48
2021/08/20 06:18:47;;;;;;;;;7.25;6.75;;;;;23.84;44.53;101334.59;5099462;27;52363;-46
2021/08/20 06:21:12;;;;;;;;;4.50;4.50;;;;;23.85;43.97;101341.81;5108816;27;52398;-49
2021/08/20 06:23:38;;;;;;;;;5.00;5.00;;;;;23.86;44.20;101337.97;5097613;27;51128;-48
2021/08/20 06:26:03;;;;;;;;;4.00;4.00;;;;;23.88;44.86;101330.31;5103132;27;50944;-48
2021/08/20 06:28:30;;;;;;;;;4.75;4.75;;;;;23.91;44.78;101335.34;5101184;27;51096;-47
2021/08/20 06:30:56;;;;;;;;;10.00;5.25;;;;;23.93;44.73;101330.44;5086365;27;52905;-50
2021/08/20 06:33:22;;;;;;;;;4.00;2.50;;;;;23.95;45.38;101335.72;5109322;27;51037;-46
2021/08/20 06:35:47;;;;;;;;;3.00;3.00;;;;;23.96;45.20;101335.50;5104549;27;51135;-50
2021/08/20 06:38:12;;;;;;;;;4.25;4.00;;;;;23.98;45.09;101332.50;5113350;27;51000;-46
2021/08/20 06:40:38;;;;;;;;;4.00;3.25;;;;;24.00;45.13;101335.88;5111499;27;51883;-46
2021/08/20 06:43:03;;;;;;;;;6.50;4.25;;;;;24.01;44.89;101335.66;5103384;27;51068;-46
2021/08/20 06:45:29;;;;;;;;;4.25;4.25;;;;;24.03;45.23;101338.19;5106741;27;51415;-50
2021/08/20 06:47:54;;;;;;;;;3.75;3.00;;;;;24.04;45.32;101337.94;5117142;27;50948;-48
2021/08/20 06:50:20;;;;;;;;;5.25;4.25;;;;;24.06;45.47;101340.47;5104315;27;51776;-49
2021/08/20 06:52:45;;;;;;;;;6.00;5.00;;;;;24.07;44.75;101333.84;5089782;27;51105;-47
2021/08/20 06:55:11;;;;;;;;;4.00;3.50;;;;;24.08;44.72;101341.09;5108268;27;51109;-43
2021/08/20 06:57:37;;;;;;;;;4.75;3.75;;;;;24.09;44.62;101335.31;5107260;27;51054;-42
2021/08/20 07:00:03;;;;;;;;;4.00;4.00;;;;;24.10;44.72;101342.53;5096829;27;51090;-44
2021/08/20 07:02:29;;;;;;;;;7.50;6.50;;;;;24.10;44.64;101342.53;5108520;27;51228;-44
2021/08/20 07:04:54;;;;;;;;;5.75;4.00;;;;;24.10;44.31;101347.25;5109394;27;51104;-43
2021/08/20 07:07:19;;;;;;;;;6.50;6.25;;;;;24.11;44.54;101346.16;5102718;27;51260;-43
2021/08/20 07:09:45;;;;;;;;;7.00;5.25;;;;;24.11;44.46;101343.38;5103194;27;52927;-44
2021/08/20 07:12:10;;;;;;;;;7.50;5.75;;;;;24.11;44.33;101354.47;5121859;27;51075;-44
2021/08/20 07:14:35;;;;;;;;;6.25;6.25;;;;;24.09;44.19;101346.41;5102217;27;51505;-43
2021/08/20 07:17:01;;;;;;;;;5.50;5.50;;;;;24.11;44.48;101347.00;5104097;27;51155;-40
2021/08/20 07:19:26;;;;;;;;;8.25;6.75;;;;;24.11;44.41;101352.53;5120667;27;51755;-44
2021/08/20 07:21:52;;;;;;;;;7.00;5.25;;;;;24.12;44.46;101347.84;5120633;27;51100;-43
2021/08/20 07:24:17;;;;;;;;;9.25;6.50;;;;;24.11;44.31;101354.47;5114660;27;51488;-41
2021/08/20 07:26:42;;;;;;;;;7.00;4.75;;;;;24.10;44.07;101353.63;5108341;27;50944;-42
2021/08/20 07:29:08;;;;;;;;;6.00;4.00;;;;;24.11;44.34;101354.47;5119947;27;52609;-43
2021/08/20 07:31:35;;;;;;;;;5.25;4.00;;;;;24.11;43.85;101357.22;5121316;27;50890;-42
2021/08/20 07:34:01;;;;;;;;;6.00;5.00;;;;;24.11;44.15;101352.53;5117788;27;51053;-45
2021/08/20 07:36:26;;;;;;;;;6.75;5.00;;;;;24.11;44.30;101360.84;5100311;27;50879;-43
2021/08/20 07:38:52;;;;;;;;;6.50;5.75;;;;;24.11;44.03;101358.06;5101553;27;51019;-43
2021/08/20 07:41:17;;;;;;;;;5.75;2.50;;;;;24.11;44.01;101358.06;5099977;27;51076;-41
2021/08/20 07:43:42;;;;;;;;;6.00;5.00;;;;;24.11;44.32;101366.38;5100174;27;50985;-43
2021/08/20 07:46:08;;;;;;;;;4.75;4.75;;;;;24.11;44.33;101369.16;5121014;27;51165;-43
2021/08/20 07:48:33;;;;;;;;;7.75;5.00;;;;;24.11;43.95;101360.00;5086410;27;54072;-43
2021/08/20 07:50:58;;;;;;;;;7.25;6.00;;;;;24.11;44.05;101365.53;5109014;27;50993;-45
2021/08/20 07:53:24;;;;;;;;;5.25;5.25;;;;;24.10;44.17;101370.22;5100113;27;50975;-44
2021/08/20 07:55:50;;;;;;;;;8.25;5.00;;;;;24.11;44.53;101373.84;5117694;27;50884;-44
2021/08/20 07:58:15;;;;;;;;;6.25;5.00;;;;;24.11;44.24;101379.38;5108264;27;51218;-44
2021/08/20 08:00:41;;;;;;;;;6.75;5.50;;;;;24.10;44.14;101372.16;5099890;27;51157;-44
2021/08/20 08:03:07;;;;;;;;;7.75;6.00;;;;;24.10;44.24;101380.44;5099963;27;51063;-46
2021/08/20 08:05:32;;;;;;;;;8.25;6.75;;;;;24.09;44.28;101373.22;5112085;27;50960;-43
2021/08/20 08:07:58;;;;;;;;;7.00;6.00;;;;;24.10;44.36;101377.69;5102540;27;51040;-45
2021/08/20 08:10:24;;;;;;;;;7.00;7.00;;;;;24.10;43.94;101378.53;5099602;27;51131;-44
2021/08/20 08:12:50;;;;;;;;;8.25;6.25;;;;;24.09;44.39;101379.59;5099741;27;50915;-43
2021/08/20 08:15:16;;;;;;;;;9.25;8.00;;;;;24.10;43.97;101386.81;5102260;27;51069;-43
2021/08/20 08:17:42;;;;;;;;;10.75;7.00;;;;;24.09;44.10;101376.84;5111206;27;51846;-43
2021/08/20 08:20:12;;;;;;;;;10.00;8.00;;;;;24.09;44.44;101384.31;5116263;27;51018;-44
2021/08/20 08:22:38;;;;;;;;;8.25;6.50;;;;;24.09;44.62;101381.53;5099514;27;51111;-43
2021/08/20 08:25:05;;;;;;;;;7.50;7.50;;;;;24.08;44.67;101390.91;5081686;27;50916;-42
2021/08/20 08:27:31;;;;;;;;;9.25;7.50;;;;;24.09;44.62;101389.84;5111918;27;50970;-42
2021/08/20 08:29:56;;;;;;;;;8.25;6.00;;;;;24.08;44.25;101391.75;5099354;27;50790;-43
2021/08/20 08:32:22;;;;;;;;;14.00;8.00;;;;;24.08;44.27;101389.00;5119394;27;51005;-43
2021/08/20 08:34:47;;;;;;;;;8.75;7.00;;;;;24.09;44.77;101395.38;5112375;27;51116;-43
2021/08/20 08:37:12;;;;;;;;;8.00;7.25;;;;;24.09;44.52;101398.13;5098424;27;50987;-45
2021/08/20 08:39:39;;;;;;;;;9.00;8.50;;;;;24.09;44.89;101392.59;5103502;27;51040;-44
2021/08/20 08:42:05;;;;;;;;;8.00;7.00;;;;;24.08;44.70;101396.44;5105465;27;52032;-45
2021/08/20 08:44:31;;;;;;;;;12.00;8.75;;;;;24.10;44.94;101399.81;5107358;27;51113;-46
2021/08/20 08:46:58;;;;;;;;;7.00;6.75;;;;;24.09;44.47;101411.97;5098543;27;52160;-44
2021/08/20 08:49:24;;;;;;;;;7.75;6.25;;;;;24.08;44.97;101410.28;5103246;27;51171;-43
2021/08/20 08:51:50;;;;;;;;;7.75;7.50;;;;;24.09;45.15;101409.22;5107384;27;51040;-46
2021/08/20 08:54:15;;;;;;;;;7.00;6.25;;;;;24.09;44.72;101410.06;5108891;27;51338;-45
2021/08/20 08:56:44;;;;;;;;;8.25;5.50;;;;;24.11;44.73;101415.34;5110242;27;51193;-45
2021/08/20 08:59:10;;;;;;;;;8.50;5.50;;;;;24.11;44.67;101405.13;5104020;27;51160;-47
2021/08/20 09:01:38;;;;;;;;;7.75;7.75;;;;;24.12;44.57;101406.81;5109141;27;52432;-48
2021/08/20 09:04:11;;;;;;;;;7.75;6.50;;;;;24.12;44.89;101401.28;5111131;27;51611;-44
2021/08/20 09:06:42;;;;;;;;;7.00;6.00;;;;;24.13;44.63;101402.97;5112985;27;51731;-44
2021/08/20 09:09:12;;;;;;;;;8.50;6.25;;;;;24.15;44.50;101403.56;5112910;27;50902;-44
2021/08/20 09:11:39;;;;;;;;;4.25;3.00;;;;;24.17;44.72;101403.31;5105860;27;52924;-47
2021/08/20 09:14:05;;;;;;;;;8.75;7.00;;;;;24.19;44.68;101401.19;5106468;27;51295;-45
2021/08/20 09:16:38;;;;;;;;;11.00;7.25;;;;;24.21;45.15;101400.97;5109298;27;51917;-44
2021/08/20 09:19:14;;;;;;;;;8.50;7.00;;;;;24.21;45.06;101407.34;5108905;27;50994;-44
2021/08/20 09:21:47;;;;;;;;;7.00;7.00;;;;;24.23;44.92;101404.34;5099879;27;51018;-43
2021/08/20 09:24:40;;;;;;;;;6.00;5.00;;;;;24.23;44.75;101399.63;5094364;27;51053;-42
2021/08/20 09:27:14;;;;;;;;;7.50;6.75;;;;;24.23;44.74;101396.88;5111659;27;52973;-43
2021/08/20 09:30:10;;;;;;;;;7.00;7.00;;;;;24.25;44.60;101400.25;5106584;27;51274;-44
2021/08/20 09:32:45;;;;;;;;;8.50;6.50;;;;;24.26;44.76;101393.63;5110630;27;51114;-43
2021/08/20 09:35:11;;;;;;;;;9.75;8.00;;;;;24.25;44.86;101382.78;5110609;27;51315;-43
2021/08/20 09:37:37;;;;;;;;;12.25;10.75;;;;;24.26;44.93;101393.63;5109219;27;51090;-44
2021/08/20 09:40:12;;;;;;;;;14.50;9.00;;;;;24.27;45.26;101380.63;5107951;27;51223;-46
2021/08/20 09:42:38;;;;;;;;;11.00;7.25;;;;;24.27;44.77;101384.22;5088213;27;51240;-43
2021/08/20 09:45:23;;;;;;;;;10.25;7.75;;;;;24.30;44.89;101394.03;5092320;27;51466;-47
2021/08/20 09:47:55;;;;;;;;;9.00;9.00;;;;;24.30;45.21;101399.56;5113719;27;53802;-43
2021/08/20 09:50:38;;;;;;;;;9.00;6.25;;;;;24.30;44.91;101396.78;5106671;27;51702;-42
2021/08/20 09:53:12;;;;;;;;;15.50;10.75;;;;;24.31;45.01;101387.44;5110173;27;51229;-45
2021/08/20 09:55:39;;;;;;;;;6.25;4.50;;;;;24.33;44.76;101390.81;5109105;27;52793;-46
2021/08/20 09:58:10;;;;;;;;;9.00;7.00;;;;;24.34;44.87;101396.09;5110557;27;51509;-48
2021/08/20 10:00:36;;;;;;;;;11.50;8.50;;;;;24.35;44.98;101399.72;5097812;27;51149;-45
2021/08/20 10:03:04;;;;;;;;;8.25;7.00;;;;;24.37;44.95;101395.63;5102338;27;51266;-44
2021/08/20 10:05:32;;;;;;;;;5.50;4.25;;;;;24.40;45.19;101402.63;5106823;27;51391;-49
2021/08/20 10:08:01;;;;;;;;;7.00;6.50;;;;;24.41;44.59;101398.78;5110805;27;52117;-49
2021/08/20 10:10:30;;;;;;;;;8.50;6.00;;;;;24.43;44.96;101402.16;5106984;27;51133;-46
2021/08/20 10:12:56;;;;;;;;;5.25;5.25;;;;;24.45;44.90;101397.22;5111310;27;51120;-48
2021/08/20 10:15:24;;;;;;;;;6.50;5.75;;;;;24.46;44.85;101399.75;5104974;27;51055;-45
2021/08/20 10:17:49;;;;;;;;;4.75;4.75;;;;;24.48;44.99;101392.03;5108272;27;51203;-47
2021/08/20 10:20:15;;;;;;;;;7.75;6.50;;;;;24.51;44.87;101393.53;5098224;27;50834;-48
2021/08/20 10:22:40;;;;;;;;;10.25;3.00;;;;;24.54;44.88;101403.28;5107299;27;51126;-46
2021/08/20 10:25:08;;;;;;;;;5.25;5.25;;;;;24.56;44.70;101399.19;5105383;27;50842;-47
2021/08/20 10:27:36;;;;;;;;;4.25;4.25;;;;;24.58;44.68;101407.25;5108951;27;51218;-47
2021/08/20 10:30:04;;;;;;;;;7.25;6.00;;;;;24.60;44.70;101405.13;5117797;27;51305;-42
2021/08/20 10:32:30;;;;;;;;;7.75;6.50;;;;;24.62;44.55;101403.78;5112147;27;51155;-42
2021/08/20 10:34:55;;;;;;;;;7.00;4.50;;;;;24.63;44.50;101405.47;5081357;27;50951;-46
2021/08/20 10:37:30;;;;;;;;;5.00;5.00;;;;;24.67;44.57;101400.28;5108490;27;51029;-46
2021/08/20 10:39:59;;;;;;;;;4.00;4.00;;;;;24.69;44.32;101398.97;5098383;27;51504;-43
2021/08/20 10:42:41;;;;;;;;;6.75;5.50;;;;;24.70;44.62;101403.47;5105481;27;51103;-43
2021/08/20 10:45:13;;;;;;;;;3.00;3.00;;;;;24.75;44.50;101398.03;5114532;27;51209;-41
2021/08/20 10:47:40;;;;;;;;;8.00;5.25;;;;;24.78;44.34;101402.25;5100625;27;51273;-43
2021/08/20 10:50:13;;;;;;;;;8.75;6.25;;;;;24.81;44.37;101403.72;5096393;27;51018;-43
2021/08/20 10:52:45;;;;;;;;;8.50;8.50;;;;;24.84;44.58;101397.69;5096480;27;51107;-42
2021/08/20 10:55:11;;;;;;;;;7.50;7.00;;;;;24.85;44.21;101389.13;5097963;27;51117;-43
2021/08/20 10:57:42;;;;;;;;;6.50;6.25;;;;;24.88;44.25;101388.66;5107767;27;51660;-46
2021/08/20 11:00:22;;;;;;;;;7.00;6.50;;;;;24.92;44.18;101389.03;5109172;27;51252;-42
2021/08/20 11:02:50;;;;;;;;;6.00;5.00;;;;;24.96;43.96;101391.06;5107805;27;51042;-48
2021/08/20 11:05:15;;;;;;;;;8.50;7.75;;;;;24.98;44.01;101390.84;5113574;27;51010;-46
2021/08/20 11:07:44;;;;;;;;;5.50;5.50;;;;;25.00;44.00;101388.66;5115273;27;50980;-49
2021/08/20 11:10:09;;;;;;;;;7.00;7.00;;;;;25.03;44.01;101391.00;5106360;27;51173;-48
2021/08/20 11:12:48;;;;;;;;;5.25;5.25;;;;;25.07;43.33;101392.19;5105638;27;50939;-48
2021/08/20 11:15:22;;;;;;;;;6.75;6.75;;;;;25.10;43.58;101388.94;5106498;27;50944;-47
2021/08/20 11:17:56;;;;;;;;;6.50;5.25;;;;;25.11;43.65;101393.41;5108647;27;50973;-46
2021/08/20 11:20:45;;;;;;;;;5.75;4.75;;;;;25.15;43.50;101388.25;5108819;27;51169;-46
2021/08/20 11:23:13;;;;;;;;;4.25;3.00;;;;;25.17;43.60;101389.69;5110719;27;51167;-45